Time;durP1;ratioP1;P1;durP2;ratioP2;P2;SDS_P1;SDS_P2;PMS_P1;PMS_P2;Temp;Humidity;BMP_temperature;BMP_pressure;BME280_temperature;BME280_humidity;BME280_pressure;Samples;Min_cycle;Max_cycle;Signal;HPM_P1;HPM_P2
2022/09/23 00:02:04;;;;;;;15.30;10.48;;;;;;;;;;1838415;76;21644;-82
2022/09/23 00:04:34;;;;;;;13.50;10.03;;;;;;;;;;1842716;76;21177;-83
2022/09/23 00:07:04;;;;;;;15.25;10.03;;;;;;;;;;1829854;76;21182;-83
2022/09/23 00:09:34;;;;;;;15.72;10.20;;;;;;;;;;1836436;76;21191;-82
2022/09/23 00:12:05;;;;;;;15.20;10.13;;;;;;;;;;1837127;76;21753;-80
2022/09/23 00:14:37;;;;;;;15.00;10.18;;;;;;;;;;1828454;76;21146;-82
2022/09/23 00:17:07;;;;;;;17.92;10.88;;;;;;;;;;1844676;76;21116;-82
2022/09/23 00:19:39;;;;;;;13.28;10.18;;;;;;;;;;1830984;76;21144;-82
2022/09/23 00:22:09;;;;;;;16.30;9.70;;;;;;;;;;1841273;77;21131;-83
2022/09/23 00:24:39;;;;;;;14.00;9.18;;;;;;;;;;1843617;76;21392;-83
2022/09/23 00:27:10;;;;;;;15.45;8.95;;;;;;;;;;1833914;77;22372;-80
2022/09/23 00:29:40;;;;;;;14.25;9.28;;;;;;;;;;1799987;78;21176;-80
2022/09/23 00:32:10;;;;;;;11.48;8.78;;;;;;;;;;1783020;79;21674;-82
2022/09/23 00:34:40;;;;;;;13.03;9.95;;;;;;;;;;1801621;78;21144;-82
2022/09/23 00:37:10;;;;;;;13.65;8.33;;;;;;;;;;1789772;78;21767;-83
2022/09/23 00:39:41;;;;;;;14.05;8.33;;;;;;;;;;1774428;79;21794;-82
2022/09/23 00:42:12;;;;;;;15.95;8.10;;;;;;;;;;1772734;79;21572;-82
2022/09/23 00:44:43;;;;;;;11.38;7.92;;;;;;;;;;1807604;77;21136;-82
2022/09/23 00:47:15;;;;;;;15.50;8.45;;;;;;;;;;1839246;76;21175;-83
2022/09/23 00:49:46;;;;;;;8.05;5.53;;;;;;;;;;1837447;76;21179;-83
2022/09/23 00:52:18;;;;;;;9.88;4.97;;;;;;;;;;1834486;76;21733;-83
2022/09/23 00:54:48;;;;;;;4.87;3.05;;;;;;;;;;1847005;76;21207;-81
2022/09/23 00:57:19;;;;;;;5.72;4.10;;;;;;;;;;1839129;76;21285;-84
2022/09/23 00:59:50;;;;;;;8.90;4.35;;;;;;;;;;1842383;76;21135;-84
2022/09/23 01:02:21;;;;;;;9.53;3.87;;;;;;;;;;1832877;76;21236;-82
2022/09/23 01:04:51;;;;;;;6.40;3.72;;;;;;;;;;1839772;76;21128;-84
2022/09/23 01:07:24;;;;;;;10.58;3.58;;;;;;;;;;1838203;76;21116;-82
2022/09/23 01:09:54;;;;;;;5.37;2.50;;;;;;;;;;1839944;76;21181;-82
2022/09/23 01:12:24;;;;;;;7.15;2.67;;;;;;;;;;1844009;76;21245;-83
2022/09/23 01:14:56;;;;;;;3.58;1.25;;;;;;;;;;1848441;76;21124;-85
2022/09/23 01:17:27;;;;;;;2.50;1.20;;;;;;;;;;1829042;76;21170;-83
2022/09/23 01:19:58;;;;;;;5.78;2.12;;;;;;;;;;1849445;76;21128;-82
2022/09/23 01:22:30;;;;;;;5.22;1.90;;;;;;;;;;1833800;76;21095;-83
2022/09/23 01:25:01;;;;;;;4.62;1.82;;;;;;;;;;1840292;76;21233;-83
2022/09/23 01:27:33;;;;;;;3.83;1.80;;;;;;;;;;1841168;76;21132;-82
2022/09/23 01:30:04;;;;;;;3.58;2.60;;;;;;;;;;1841968;76;21606;-84
2022/09/23 01:32:39;;;;;;;3.37;2.50;;;;;;;;;;1847478;76;21181;-83
2022/09/23 01:35:11;;;;;;;3.80;2.12;;;;;;;;;;1785149;79;21127;-82
2022/09/23 01:37:43;;;;;;;3.83;2.12;;;;;;;;;;1842831;76;21175;-83
2022/09/23 01:40:14;;;;;;;6.08;3.33;;;;;;;;;;1842871;76;21142;-84
2022/09/23 01:42:46;;;;;;;4.20;2.60;;;;;;;;;;1847980;76;21084;-83
2022/09/23 01:45:20;;;;;;;3.75;2.27;;;;;;;;;;1842057;76;21150;-83
2022/09/23 01:47:53;;;;;;;4.72;2.55;;;;;;;;;;1842082;76;21186;-83
2022/09/23 01:53:00;;;;;;;4.65;2.45;;;;;;;;;;1838096;76;20579;-84
2022/09/23 01:55:31;;;;;;;4.08;1.90;;;;;;;;;;1837770;76;21658;-83
2022/09/23 01:58:02;;;;;;;2.65;1.80;;;;;;;;;;1840150;76;21187;-82
2022/09/23 02:00:39;;;;;;;2.75;1.32;;;;;;;;;;1833877;76;21245;-84
2022/09/23 02:03:06;;;;;;;3.12;1.55;;;;;;;;;;1828434;76;21200;-84
2022/09/23 02:05:38;;;;;;;4.37;1.80;;;;;;;;;;1827556;76;21131;-82
2022/09/23 02:08:09;;;;;;;4.47;1.60;;;;;;;;;;1825370;77;21144;-83
2022/09/23 02:10:43;;;;;;;4.72;1.52;;;;;;;;;;1794790;78;21717;-85
2022/09/23 02:13:14;;;;;;;4.17;1.82;;;;;;;;;;1826537;76;21196;-83
2022/09/23 02:15:45;;;;;;;13.40;7.40;;;;;;;;;;1822699;76;21106;-83
2022/09/23 02:18:17;;;;;;;5.45;2.35;;;;;;;;;;1825728;77;21122;-83
2022/09/23 02:20:48;;;;;;;2.95;1.87;;;;;;;;;;1830102;76;21188;-84
2022/09/23 02:23:20;;;;;;;4.53;2.67;;;;;;;;;;1827922;77;21139;-83
2022/09/23 02:25:51;;;;;;;3.95;2.98;;;;;;;;;;1825421;76;21140;-82
2022/09/23 02:28:23;;;;;;;6.80;3.58;;;;;;;;;;1824242;76;21771;-83
2022/09/23 02:30:55;;;;;;;5.85;3.47;;;;;;;;;;1830864;77;21121;-82
2022/09/23 02:33:26;;;;;;;5.35;3.35;;;;;;;;;;1831306;76;21131;-82
2022/09/23 02:35:57;;;;;;;5.08;3.50;;;;;;;;;;1831487;76;21543;-82
2022/09/23 02:38:29;;;;;;;4.15;3.00;;;;;;;;;;1828458;76;21204;-83
2022/09/23 02:41:00;;;;;;;5.12;3.12;;;;;;;;;;1828062;77;21265;-79
2022/09/23 02:43:32;;;;;;;8.08;3.58;;;;;;;;;;1823657;77;21175;-80
2022/09/23 02:46:03;;;;;;;7.47;3.70;;;;;;;;;;1826494;76;21692;-81
2022/09/23 02:48:34;;;;;;;5.25;3.37;;;;;;;;;;1828060;77;21228;-84
2022/09/23 02:51:04;;;;;;;5.97;3.92;;;;;;;;;;1826213;78;21210;-83
2022/09/23 02:53:35;;;;;;;5.10;3.50;;;;;;;;;;1823823;78;21178;-80
2022/09/23 02:56:06;;;;;;;5.53;3.58;;;;;;;;;;1833405;76;21706;-80
2022/09/23 02:58:36;;;;;;;6.83;3.50;;;;;;;;;;1833186;77;21814;-82
2022/09/23 03:01:08;;;;;;;5.33;3.65;;;;;;;;;;1831472;78;21094;-82
2022/09/23 03:03:39;;;;;;;6.22;3.85;;;;;;;;;;1831579;77;21166;-81
2022/09/23 03:06:11;;;;;;;5.87;3.98;;;;;;;;;;1838474;76;21153;-84
2022/09/23 03:08:43;;;;;;;7.28;3.60;;;;;;;;;;1829943;78;21141;-81
2022/09/23 03:11:13;;;;;;;5.37;3.50;;;;;;;;;;1831614;77;21131;-82
2022/09/23 03:13:45;;;;;;;4.45;3.50;;;;;;;;;;1830360;78;21272;-82
2022/09/23 03:16:17;;;;;;;6.20;3.22;;;;;;;;;;1828640;76;21192;-84
2022/09/23 03:18:49;;;;;;;7.08;4.00;;;;;;;;;;1828655;77;21272;-82
2022/09/23 03:21:18;;;;;;;5.15;3.85;;;;;;;;;;1830138;77;21125;-82
2022/09/23 03:23:49;;;;;;;9.75;4.72;;;;;;;;;;1830168;77;21149;-83
2022/09/23 03:26:20;;;;;;;6.75;4.58;;;;;;;;;;1831963;76;21113;-82
2022/09/23 03:28:51;;;;;;;5.65;3.75;;;;;;;;;;1823411;77;21189;-85
2022/09/23 03:31:21;;;;;;;5.60;3.70;;;;;;;;;;1828894;77;21163;-80
2022/09/23 03:33:53;;;;;;;5.67;3.67;;;;;;;;;;1829542;77;21477;-81
2022/09/23 03:38:57;;;;;;;6.33;4.37;;;;;;;;;;1759096;79;21148;-81
2022/09/23 03:41:28;;;;;;;6.58;4.15;;;;;;;;;;1756120;79;21081;-81
2022/09/23 03:43:59;;;;;;;6.70;4.40;;;;;;;;;;1826269;77;21303;-82
2022/09/23 03:46:32;;;;;;;7.40;4.90;;;;;;;;;;1827397;76;21160;-81
2022/09/23 03:49:03;;;;;;;7.85;4.90;;;;;;;;;;1826657;77;21155;-80
2022/09/23 03:51:33;;;;;;;5.90;4.62;;;;;;;;;;1828688;77;21784;-84
2022/09/23 03:54:03;;;;;;;9.55;4.08;;;;;;;;;;1823907;77;21082;-83
2022/09/23 03:56:33;;;;;;;7.30;3.70;;;;;;;;;;1827180;76;21074;-82
2022/09/23 03:59:03;;;;;;;6.47;3.90;;;;;;;;;;1823898;77;21169;-81
2022/09/23 04:01:33;;;;;;;8.43;4.25;;;;;;;;;;1824351;78;21227;-82
2022/09/23 04:04:04;;;;;;;5.58;3.37;;;;;;;;;;1845216;76;21240;-83
2022/09/23 04:06:35;;;;;;;6.28;3.70;;;;;;;;;;1866344;76;21615;-82
2022/09/23 04:09:05;;;;;;;6.17;3.92;;;;;;;;;;1874050;76;21194;-81
2022/09/23 04:11:36;;;;;;;6.10;3.75;;;;;;;;;;1873863;75;21127;-81
2022/09/23 04:14:06;;;;;;;4.95;3.85;;;;;;;;;;1853554;76;21744;-81
2022/09/23 04:16:36;;;;;;;6.12;3.40;;;;;;;;;;1867802;76;21219;-81
2022/09/23 04:19:07;;;;;;;8.53;4.70;;;;;;;;;;1862931;75;21623;-82
2022/09/23 04:21:42;;;;;;;5.12;3.85;;;;;;;;;;1876273;75;21242;-81
2022/09/23 04:24:13;;;;;;;6.72;4.05;;;;;;;;;;1869535;75;21031;-80
2022/09/23 04:26:43;;;;;;;6.50;3.20;;;;;;;;;;1870365;76;21194;-79
2022/09/23 04:29:14;;;;;;;5.33;3.33;;;;;;;;;;1860556;76;21638;-80
2022/09/23 04:31:44;;;;;;;6.10;3.50;;;;;;;;;;1862015;75;21273;-81
2022/09/23 04:34:18;;;;;;;6.20;3.10;;;;;;;;;;1861806;76;21893;-80
2022/09/23 04:36:46;;;;;;;6.03;3.58;;;;;;;;;;1843079;76;21124;-81
2022/09/23 04:39:17;;;;;;;5.62;3.37;;;;;;;;;;1830382;76;21584;-81
2022/09/23 04:41:47;;;;;;;5.80;3.58;;;;;;;;;;1824067;77;21135;-81
2022/09/23 04:44:19;;;;;;;8.23;3.65;;;;;;;;;;1874153;76;21115;-83
2022/09/23 04:46:54;;;;;;;7.10;3.80;;;;;;;;;;1857758;76;21269;-81
2022/09/23 04:49:20;;;;;;;7.50;3.37;;;;;;;;;;1867354;75;21594;-82
2022/09/23 04:51:50;;;;;;;4.80;3.20;;;;;;;;;;1872170;76;21121;-81
2022/09/23 04:54:21;;;;;;;5.62;3.72;;;;;;;;;;1837738;76;21210;-81
2022/09/23 04:56:51;;;;;;;4.50;3.45;;;;;;;;;;1832396;77;21146;-82
2022/09/23 04:59:21;;;;;;;5.75;3.35;;;;;;;;;;1856556;75;21065;-83
2022/09/23 05:01:54;;;;;;;6.05;3.92;;;;;;;;;;1853698;76;21606;-81
2022/09/23 05:04:23;;;;;;;6.70;4.33;;;;;;;;;;1850923;76;21143;-82
2022/09/23 05:06:53;;;;;;;5.80;3.83;;;;;;;;;;1827753;77;21601;-82
2022/09/23 05:09:25;;;;;;;6.67;3.70;;;;;;;;;;1832542;77;21611;-84
2022/09/23 05:11:55;;;;;;;5.42;4.12;;;;;;;;;;1833620;77;21168;-82
2022/09/23 05:14:25;;;;;;;5.62;3.67;;;;;;;;;;1832916;77;21163;-83
2022/09/23 05:16:55;;;;;;;6.10;3.50;;;;;;;;;;1825089;77;21277;-82
2022/09/23 05:19:26;;;;;;;5.08;3.30;;;;;;;;;;1825732;77;21268;-83
2022/09/23 05:21:56;;;;;;;4.37;3.30;;;;;;;;;;1832669;77;21162;-84
2022/09/23 05:24:26;;;;;;;4.50;3.35;;;;;;;;;;1827463;77;21607;-83
2022/09/23 05:26:56;;;;;;;6.30;3.80;;;;;;;;;;1821864;77;21610;-83
2022/09/23 05:29:27;;;;;;;4.75;3.40;;;;;;;;;;1822272;77;21139;-83
2022/09/23 05:31:58;;;;;;;4.58;3.85;;;;;;;;;;1828266;77;21158;-84
2022/09/23 05:34:28;;;;;;;6.00;3.80;;;;;;;;;;1819976;77;21528;-83
2022/09/23 05:36:58;;;;;;;7.35;3.67;;;;;;;;;;1829236;77;21229;-83
2022/09/23 05:39:29;;;;;;;7.62;4.20;;;;;;;;;;1828765;77;21628;-83
2022/09/23 05:42:00;;;;;;;5.35;3.80;;;;;;;;;;1785611;78;21170;-82
2022/09/23 05:44:31;;;;;;;6.35;3.98;;;;;;;;;;1805228;77;21183;-81
2022/09/23 05:47:01;;;;;;;5.45;4.05;;;;;;;;;;1784521;79;21630;-82
2022/09/23 05:49:32;;;;;;;5.22;3.52;;;;;;;;;;1820676;77;21111;-81
2022/09/23 05:52:03;;;;;;;4.75;3.70;;;;;;;;;;1828160;77;21525;-82
2022/09/23 05:54:36;;;;;;;4.75;3.37;;;;;;;;;;1832112;77;21123;-83
2022/09/23 05:57:05;;;;;;;4.58;3.22;;;;;;;;;;1808308;77;21171;-83
2022/09/23 05:59:46;;;;;;;5.25;3.40;;;;;;;;;;1834776;77;21183;-81
2022/09/23 06:02:08;;;;;;;5.25;3.72;;;;;;;;;;1827641;77;21669;-83
2022/09/23 06:04:39;;;;;;;6.05;4.00;;;;;;;;;;1834765;77;21191;-79
2022/09/23 06:07:09;;;;;;;4.83;3.50;;;;;;;;;;1835020;77;21184;-83
2022/09/23 06:09:41;;;;;;;4.40;3.05;;;;;;;;;;1832658;76;21649;-83
2022/09/23 06:12:12;;;;;;;5.50;3.08;;;;;;;;;;1833696;77;21120;-82
2022/09/23 06:14:42;;;;;;;5.33;3.25;;;;;;;;;;1802135;78;21154;-83
2022/09/23 06:17:12;;;;;;;5.53;3.30;;;;;;;;;;1744496;80;21143;-87
2022/09/23 06:19:42;;;;;;;4.80;3.37;;;;;;;;;;1764016;79;21808;-84
2022/09/23 06:22:15;;;;;;;4.67;3.27;;;;;;;;;;1771547;80;21217;-84
2022/09/23 06:24:44;;;;;;;4.65;3.10;;;;;;;;;;1829875;77;21176;-84
2022/09/23 06:27:14;;;;;;;7.83;4.00;;;;;;;;;;1831999;77;21882;-83
2022/09/23 06:29:44;;;;;;;8.25;3.60;;;;;;;;;;1837023;76;21178;-84
2022/09/23 06:32:15;;;;;;;7.40;3.90;;;;;;;;;;1820982;77;21252;-85
2022/09/23 06:34:45;;;;;;;6.55;3.87;;;;;;;;;;1834220;77;21218;-85
2022/09/23 06:37:16;;;;;;;6.80;3.35;;;;;;;;;;1830255;78;21190;-84
2022/09/23 06:39:48;;;;;;;5.37;3.98;;;;;;;;;;1831242;76;21155;-84
2022/09/23 06:42:18;;;;;;;5.33;3.27;;;;;;;;;;1831024;77;21160;-84
2022/09/23 06:44:48;;;;;;;6.42;3.40;;;;;;;;;;1833352;77;21280;-84
2022/09/23 06:47:30;;;;;;;5.28;3.12;;;;;;;;;;1826071;77;21092;-85
2022/09/23 06:50:04;;;;;;;4.78;3.12;;;;;;;;;;1791204;76;21102;-84
2022/09/23 06:52:35;;;;;;;5.12;2.62;;;;;;;;;;1832992;76;21148;-85
2022/09/23 06:55:06;;;;;;;5.12;2.77;;;;;;;;;;1832994;77;21169;-85
2022/09/23 06:57:38;;;;;;;3.85;2.33;;;;;;;;;;1835206;76;21122;-84
2022/09/23 07:00:09;;;;;;;3.22;2.30;;;;;;;;;;1832104;76;21114;-86
2022/09/23 07:02:40;;;;;;;3.70;1.92;;;;;;;;;;1832097;76;21081;-85
2022/09/23 07:05:16;;;;;;;3.22;1.65;;;;;;;;;;1850312;76;21472;-83
2022/09/23 07:07:46;;;;;;;2.17;1.50;;;;;;;;;;1845868;76;21111;-83
2022/09/23 07:10:16;;;;;;;3.08;1.80;;;;;;;;;;1867111;76;21267;-84
2022/09/23 07:12:47;;;;;;;4.58;1.82;;;;;;;;;;1869015;76;21115;-84
2022/09/23 07:15:17;;;;;;;2.55;1.50;;;;;;;;;;1863882;76;21670;-84
2022/09/23 07:17:48;;;;;;;2.02;1.40;;;;;;;;;;1855715;76;21163;-85
2022/09/23 07:20:18;;;;;;;3.10;1.77;;;;;;;;;;1857695;76;21119;-84
2022/09/23 07:22:51;;;;;;;1.95;1.15;;;;;;;;;;1857990;76;21117;-85
2022/09/23 07:25:21;;;;;;;3.00;1.30;;;;;;;;;;1849898;76;21129;-85
2022/09/23 07:27:52;;;;;;;3.27;1.30;;;;;;;;;;1848308;76;21624;-83
2022/09/23 07:30:22;;;;;;;3.52;1.55;;;;;;;;;;1859280;76;21139;-86
2022/09/23 07:32:53;;;;;;;4.15;1.50;;;;;;;;;;1857745;76;21428;-85
2022/09/23 07:35:26;;;;;;;2.80;1.42;;;;;;;;;;1851681;76;21178;-84
2022/09/23 07:37:55;;;;;;;3.42;1.75;;;;;;;;;;1853882;76;21125;-84
2022/09/23 07:40:25;;;;;;;3.47;2.30;;;;;;;;;;1854012;76;21120;-84
2022/09/23 07:42:55;;;;;;;2.67;1.60;;;;;;;;;;1866904;76;21141;-88
2022/09/23 07:45:26;;;;;;;3.70;1.70;;;;;;;;;;1851879;76;21166;-84
2022/09/23 07:47:56;;;;;;;3.00;1.52;;;;;;;;;;1865246;76;21560;-84
2022/09/23 07:50:27;;;;;;;2.72;1.40;;;;;;;;;;1853176;76;21139;-84
2022/09/23 07:52:58;;;;;;;1.87;1.20;;;;;;;;;;1841496;76;21931;-84
2022/09/23 07:55:28;;;;;;;2.12;1.20;;;;;;;;;;1860487;76;21080;-84
2022/09/23 07:57:58;;;;;;;2.35;1.47;;;;;;;;;;1870391;76;21447;-83
2022/09/23 08:00:28;;;;;;;2.65;1.60;;;;;;;;;;1866038;76;21188;-84
2022/09/23 08:02:59;;;;;;;3.65;1.55;;;;;;;;;;1857313;76;21154;-85
2022/09/23 08:05:30;;;;;;;2.65;1.35;;;;;;;;;;1849354;76;21135;-83
2022/09/23 08:08:01;;;;;;;4.12;1.50;;;;;;;;;;1842649;76;21158;-84
2022/09/23 08:10:31;;;;;;;2.02;1.20;;;;;;;;;;1854329;76;21140;-85
2022/09/23 08:13:02;;;;;;;1.77;1.17;;;;;;;;;;1850075;76;21242;-83
2022/09/23 08:15:33;;;;;;;2.87;1.37;;;;;;;;;;1849126;76;21127;-85
2022/09/23 08:18:03;;;;;;;2.60;1.37;;;;;;;;;;1852490;76;21147;-84
2022/09/23 08:20:43;;;;;;;2.87;1.40;;;;;;;;;;1838393;76;21135;-83
2022/09/23 08:23:05;;;;;;;2.37;1.30;;;;;;;;;;1839351;76;21219;-81
2022/09/23 08:25:35;;;;;;;3.00;1.52;;;;;;;;;;1834553;76;21175;-80
2022/09/23 08:28:07;;;;;;;4.42;1.70;;;;;;;;;;1851739;76;21163;-84
2022/09/23 08:30:38;;;;;;;4.53;1.50;;;;;;;;;;1847700;76;21217;-85
2022/09/23 08:33:12;;;;;;;3.42;1.42;;;;;;;;;;1848700;76;21084;-83
2022/09/23 08:35:44;;;;;;;4.33;1.70;;;;;;;;;;1849315;76;21579;-84
2022/09/23 08:38:14;;;;;;;3.58;1.92;;;;;;;;;;1845170;76;21137;-81
2022/09/23 08:40:46;;;;;;;3.95;1.80;;;;;;;;;;1804823;78;21343;-84
2022/09/23 08:43:18;;;;;;;4.53;2.33;;;;;;;;;;1773492;79;21168;-82
2022/09/23 08:45:49;;;;;;;7.28;2.67;;;;;;;;;;1852621;76;21189;-83
2022/09/23 08:48:21;;;;;;;5.12;2.40;;;;;;;;;;1849806;76;21096;-85
2022/09/23 08:50:52;;;;;;;6.37;2.45;;;;;;;;;;1849015;76;21119;-85
2022/09/23 08:53:24;;;;;;;2.72;2.30;;;;;;;;;;1838179;76;21188;-84
2022/09/23 08:55:56;;;;;;;4.25;2.40;;;;;;;;;;1845127;76;21694;-84
2022/09/23 08:58:27;;;;;;;5.83;2.50;;;;;;;;;;1851260;76;21195;-83
2022/09/23 09:00:58;;;;;;;5.03;2.67;;;;;;;;;;1814010;77;21156;-83
2022/09/23 09:03:30;;;;;;;5.35;2.60;;;;;;;;;;1779240;79;21179;-82
2022/09/23 09:06:01;;;;;;;3.33;2.50;;;;;;;;;;1805953;76;21210;-83
2022/09/23 09:08:32;;;;;;;3.30;2.22;;;;;;;;;;1809437;78;21250;-83
2022/09/23 09:11:03;;;;;;;4.62;2.58;;;;;;;;;;1807328;78;22171;-82
2022/09/23 09:13:35;;;;;;;4.25;2.87;;;;;;;;;;1810193;77;21619;-83
2022/09/23 09:16:10;;;;;;;4.55;2.55;;;;;;;;;;1839192;76;21160;-83
2022/09/23 09:18:42;;;;;;;4.90;2.83;;;;;;;;;;1835639;76;21265;-84
2022/09/23 09:21:13;;;;;;;4.92;3.00;;;;;;;;;;1837138;77;21160;-84
2022/09/23 09:23:44;;;;;;;3.92;2.50;;;;;;;;;;1842168;77;21585;-84
2022/09/23 09:26:16;;;;;;;4.33;2.83;;;;;;;;;;1842232;76;21182;-83
2022/09/23 09:28:52;;;;;;;4.75;2.70;;;;;;;;;;1837210;78;21210;-83
2022/09/23 09:31:21;;;;;;;4.42;3.10;;;;;;;;;;1844696;76;21804;-86
2022/09/23 09:33:56;;;;;;;5.45;3.08;;;;;;;;;;1856450;76;21158;-82
2022/09/23 09:36:23;;;;;;;6.17;3.25;;;;;;;;;;1850752;76;21234;-83
2022/09/23 09:38:57;;;;;;;4.65;3.02;;;;;;;;;;1857521;76;21504;-83
2022/09/23 09:41:30;;;;;;;4.47;3.15;;;;;;;;;;1832990;76;21236;-82
2022/09/23 09:43:59;;;;;;;8.23;2.83;;;;;;;;;;1844514;76;21178;-83
2022/09/23 09:46:32;;;;;;;6.05;2.62;;;;;;;;;;1849864;76;21050;-83
2022/09/23 09:49:04;;;;;;;4.87;2.77;;;;;;;;;;1851688;76;21146;-83
2022/09/23 09:51:35;;;;;;;4.85;2.25;;;;;;;;;;1847786;76;21102;-83
2022/09/23 09:54:08;;;;;;;4.55;2.00;;;;;;;;;;1846600;76;21234;-84
2022/09/23 09:56:38;;;;;;;4.55;1.47;;;;;;;;;;1844747;76;21934;-83
2022/09/23 09:59:10;;;;;;;2.90;1.30;;;;;;;;;;1850817;76;21084;-83
2022/09/23 10:01:40;;;;;;;3.27;1.25;;;;;;;;;;1858365;76;21076;-83
2022/09/23 10:04:12;;;;;;;2.00;1.22;;;;;;;;;;1850591;76;21171;-83
2022/09/23 10:06:42;;;;;;;2.77;1.05;;;;;;;;;;1846459;76;21248;-84
2022/09/23 10:09:13;;;;;;;1.40;0.90;;;;;;;;;;1852492;76;21264;-84
2022/09/23 10:11:45;;;;;;;1.87;0.93;;;;;;;;;;1838382;76;21132;-84
2022/09/23 10:14:17;;;;;;;4.03;0.90;;;;;;;;;;1842826;76;21135;-83
2022/09/23 10:16:49;;;;;;;2.02;1.00;;;;;;;;;;1838243;76;21215;-83
2022/09/23 10:19:20;;;;;;;2.55;0.90;;;;;;;;;;1835635;76;21166;-84
2022/09/23 10:21:52;;;;;;;2.10;1.00;;;;;;;;;;1840880;76;21834;-85
2022/09/23 10:24:23;;;;;;;3.42;1.00;;;;;;;;;;1857873;76;21127;-84
2022/09/23 10:26:55;;;;;;;1.75;0.88;;;;;;;;;;1847647;76;21138;-85
2022/09/23 10:29:26;;;;;;;2.47;0.95;;;;;;;;;;1857684;76;21209;-80
2022/09/23 10:31:58;;;;;;;3.12;1.00;;;;;;;;;;1842626;76;21228;-85
2022/09/23 10:34:28;;;;;;;5.90;1.00;;;;;;;;;;1848219;76;21112;-85
2022/09/23 10:37:00;;;;;;;2.15;0.80;;;;;;;;;;1847635;76;21085;-84
2022/09/23 10:47:09;;;;;;;2.40;1.00;;;;;;;;;;1770494;79;21099;-84
2022/09/23 10:49:41;;;;;;;3.50;1.10;;;;;;;;;;1839444;76;21170;-84
2022/09/23 10:52:13;;;;;;;4.62;1.00;;;;;;;;;;1832309;76;21108;-84
2022/09/23 10:54:44;;;;;;;3.70;1.15;;;;;;;;;;1840841;76;21064;-85
2022/09/23 10:59:48;;;;;;;3.15;1.22;;;;;;;;;;1846764;76;21268;-84
2022/09/23 11:02:18;;;;;;;3.45;1.30;;;;;;;;;;1864328;76;21186;-83
2022/09/23 11:04:51;;;;;;;7.90;1.60;;;;;;;;;;1855490;76;21669;-83
2022/09/23 11:07:21;;;;;;;2.62;1.52;;;;;;;;;;1812024;78;21259;-83
2022/09/23 11:09:53;;;;;;;5.25;1.92;;;;;;;;;;1817155;78;21293;-84
2022/09/23 11:12:24;;;;;;;3.37;1.40;;;;;;;;;;1827579;78;21100;-84
2022/09/23 11:14:56;;;;;;;4.78;1.55;;;;;;;;;;1816853;77;21186;-85
2022/09/23 11:17:27;;;;;;;9.15;1.72;;;;;;;;;;1821300;77;21237;-84
2022/09/23 11:19:59;;;;;;;6.50;2.08;;;;;;;;;;1821794;77;21165;-84
2022/09/23 11:22:34;;;;;;;4.37;1.92;;;;;;;;;;1837159;77;21646;-83
2022/09/23 11:25:03;;;;;;;5.22;2.20;;;;;;;;;;1819520;77;21078;-85
2022/09/23 11:27:42;;;;;;;7.70;1.82;;;;;;;;;;1820791;77;21547;-84
2022/09/23 11:30:09;;;;;;;6.72;2.52;;;;;;;;;;1791639;78;21183;-83
2022/09/23 11:32:41;;;;;;;3.52;2.08;;;;;;;;;;1816333;77;21135;-84
2022/09/23 11:35:12;;;;;;;4.70;2.10;;;;;;;;;;1812106;77;21245;-82
2022/09/23 11:37:43;;;;;;;5.25;2.00;;;;;;;;;;1810535;78;21147;-86
2022/09/23 11:40:15;;;;;;;5.40;1.75;;;;;;;;;;1816942;77;21226;-83
2022/09/23 11:43:00;;;;;;;7.75;2.58;;;;;;;;;;1809095;78;21197;-84
2022/09/23 11:45:19;;;;;;;4.62;2.05;;;;;;;;;;1803468;78;21143;-83
2022/09/23 11:47:51;;;;;;;2.98;1.90;;;;;;;;;;1820016;78;21604;-83
2022/09/23 11:50:24;;;;;;;7.35;2.37;;;;;;;;;;1809978;77;21619;-84
2022/09/23 11:52:57;;;;;;;5.28;2.17;;;;;;;;;;1837898;77;21656;-83
2022/09/23 11:55:30;;;;;;;3.17;1.80;;;;;;;;;;1814192;77;21107;-84
2022/09/23 11:58:03;;;;;;;4.65;2.33;;;;;;;;;;1808056;77;21625;-84
2022/09/23 12:03:28;;;;;;;2.83;1.57;;;;;;;;;;1770595;80;21143;-84
2022/09/23 12:06:01;;;;;;;3.22;1.75;;;;;;;;;;1765524;80;21224;-83
2022/09/23 12:08:32;;;;;;;3.02;1.92;;;;;;;;;;1798423;78;21178;-84
2022/09/23 12:11:05;;;;;;;7.08;2.20;;;;;;;;;;1801095;79;21182;-83
2022/09/23 12:13:36;;;;;;;3.80;2.17;;;;;;;;;;1804607;78;21115;-85
2022/09/23 12:16:12;;;;;;;5.65;2.02;;;;;;;;;;1808399;78;21249;-85
2022/09/23 12:18:44;;;;;;;8.10;2.30;;;;;;;;;;1794144;78;21159;-83
2022/09/23 12:21:15;;;;;;;4.42;2.42;;;;;;;;;;1801339;78;21175;-84
2022/09/23 12:23:48;;;;;;;5.10;2.52;;;;;;;;;;1797815;78;21185;-84
2022/09/23 12:26:19;;;;;;;8.10;2.80;;;;;;;;;;1794742;78;21519;-83
2022/09/23 12:28:51;;;;;;;4.80;2.52;;;;;;;;;;1809438;78;21166;-83
2022/09/23 12:31:31;;;;;;;8.13;2.83;;;;;;;;;;1806660;78;21171;-84
2022/09/23 12:34:02;;;;;;;4.70;2.60;;;;;;;;;;1798950;76;21665;-82
2022/09/23 12:36:34;;;;;;;6.25;2.70;;;;;;;;;;1803487;78;21239;-85
2022/09/23 12:39:05;;;;;;;5.92;3.00;;;;;;;;;;1806168;78;21241;-84
2022/09/23 12:41:37;;;;;;;5.62;2.87;;;;;;;;;;1812103;78;21234;-83
2022/09/23 12:44:13;;;;;;;10.35;3.20;;;;;;;;;;1809449;78;21667;-85
2022/09/23 12:46:44;;;;;;;5.85;3.05;;;;;;;;;;1802667;78;21202;-83
2022/09/23 12:49:15;;;;;;;5.40;3.17;;;;;;;;;;1803288;78;21084;-83
2022/09/23 12:51:47;;;;;;;9.03;3.40;;;;;;;;;;1801147;78;21260;-82
2022/09/23 12:54:18;;;;;;;8.50;3.42;;;;;;;;;;1808986;77;21760;-84
2022/09/23 12:56:49;;;;;;;6.87;3.30;;;;;;;;;;1810411;78;22015;-83
2022/09/23 12:59:38;;;;;;;7.47;3.42;;;;;;;;;;1813212;75;21606;-82
2022/09/23 13:01:54;;;;;;;5.75;3.12;;;;;;;;;;1873748;76;21150;-83
2022/09/23 13:07:02;;;;;;;6.33;3.12;;;;;;;;;;1855439;76;21221;-82
2022/09/23 13:09:36;;;;;;;5.33;2.92;;;;;;;;;;1841940;76;21119;-83
2022/09/23 13:12:08;;;;;;;9.78;3.33;;;;;;;;;;1851158;76;21278;-82
2022/09/23 13:14:41;;;;;;;7.58;3.00;;;;;;;;;;1835584;77;21137;-83
2022/09/23 13:17:15;;;;;;;6.05;3.10;;;;;;;;;;1790443;78;21237;-83
2022/09/23 13:19:45;;;;;;;6.00;3.17;;;;;;;;;;1813487;77;21225;-84
2022/09/23 13:22:24;;;;;;;6.47;3.10;;;;;;;;;;1808227;78;21194;-82
2022/09/23 13:24:54;;;;;;;8.55;3.65;;;;;;;;;;1851321;74;21158;-82
2022/09/23 13:27:25;;;;;;;6.22;3.05;;;;;;;;;;1862956;75;21174;-83
2022/09/23 13:29:59;;;;;;;5.65;2.83;;;;;;;;;;1861966;76;21217;-83
2022/09/23 13:32:34;;;;;;;4.20;2.72;;;;;;;;;;1854930;75;21607;-83
2022/09/23 13:35:05;;;;;;;7.85;3.90;;;;;;;;;;1853473;76;21626;-84
2022/09/23 13:37:39;;;;;;;8.83;3.75;;;;;;;;;;1879109;76;21166;-83
2022/09/23 13:40:11;;;;;;;7.08;3.33;;;;;;;;;;1839426;77;21214;-83
2022/09/23 13:42:42;;;;;;;9.15;3.17;;;;;;;;;;1794526;78;21159;-83
2022/09/23 13:45:14;;;;;;;8.73;3.40;;;;;;;;;;1797167;78;21168;-83
2022/09/23 13:47:45;;;;;;;8.25;3.47;;;;;;;;;;1861415;75;21182;-83
2022/09/23 13:50:18;;;;;;;7.58;3.60;;;;;;;;;;1872569;76;21237;-84
2022/09/23 13:52:50;;;;;;;8.03;3.42;;;;;;;;;;1855369;76;21127;-83
2022/09/23 13:55:21;;;;;;;6.72;3.65;;;;;;;;;;1862610;76;21169;-82
2022/09/23 13:57:52;;;;;;;8.60;3.67;;;;;;;;;;1855140;76;21159;-83
2022/09/23 14:00:24;;;;;;;5.67;3.20;;;;;;;;;;1826767;77;21108;-83
2022/09/23 14:02:54;;;;;;;8.28;3.50;;;;;;;;;;1823822;77;21157;-82
2022/09/23 14:05:26;;;;;;;6.97;3.50;;;;;;;;;;1833943;77;21088;-82
2022/09/23 14:08:18;;;;;;;6.25;3.50;;;;;;;;;;1834336;78;21191;-82
2022/09/23 14:10:49;;;;;;;7.03;3.30;;;;;;;;;;1814214;77;21056;-83
2022/09/23 14:13:25;;;;;;;6.37;3.37;;;;;;;;;;1832049;77;21098;-83
2022/09/23 14:15:57;;;;;;;4.92;3.30;;;;;;;;;;1820699;77;21175;-82
2022/09/23 14:18:29;;;;;;;7.58;3.62;;;;;;;;;;1832747;76;21179;-83
2022/09/23 14:21:05;;;;;;;6.67;3.47;;;;;;;;;;1846210;76;21229;-83
2022/09/23 14:23:31;;;;;;;8.85;3.98;;;;;;;;;;1852959;76;21672;-83
2022/09/23 14:26:04;;;;;;;5.78;3.58;;;;;;;;;;1874809;76;21192;-83
2022/09/23 14:28:34;;;;;;;8.88;3.45;;;;;;;;;;1872946;76;21147;-83
2022/09/23 14:31:04;;;;;;;5.45;3.40;;;;;;;;;;1870818;76;21619;-83
2022/09/23 14:33:36;;;;;;;7.03;3.40;;;;;;;;;;1869236;76;21155;-83
2022/09/23 14:38:49;;;;;;;4.30;2.83;;;;;;;;;;1861638;76;21245;-82
2022/09/23 14:41:16;;;;;;;6.10;3.65;;;;;;;;;;1867820;76;21127;-80
2022/09/23 14:43:45;;;;;;;7.20;3.45;;;;;;;;;;1861763;76;21135;-83
2022/09/23 14:46:16;;;;;;;7.37;3.37;;;;;;;;;;1853956;76;21142;-83
2022/09/23 14:48:49;;;;;;;7.95;3.08;;;;;;;;;;1861612;76;21075;-83
2022/09/23 14:51:19;;;;;;;7.42;3.50;;;;;;;;;;1876314;76;21157;-83
2022/09/23 14:53:50;;;;;;;8.38;3.42;;;;;;;;;;1866578;76;21586;-82
2022/09/23 14:56:21;;;;;;;7.28;3.05;;;;;;;;;;1845214;76;21086;-82
2022/09/23 14:58:54;;;;;;;7.47;3.67;;;;;;;;;;1843025;76;21681;-83
2022/09/23 15:01:26;;;;;;;6.58;3.30;;;;;;;;;;1844510;76;21141;-82
2022/09/23 15:03:57;;;;;;;5.87;2.90;;;;;;;;;;1844151;76;21069;-82
2022/09/23 15:06:27;;;;;;;7.92;3.62;;;;;;;;;;1849955;76;21196;-82
2022/09/23 15:09:00;;;;;;;8.15;3.75;;;;;;;;;;1860160;76;21135;-83
2022/09/23 15:11:30;;;;;;;5.78;3.47;;;;;;;;;;1831442;76;21100;-83
2022/09/23 15:14:00;;;;;;;5.37;3.75;;;;;;;;;;1817502;78;21220;-83
2022/09/23 15:16:32;;;;;;;7.05;3.85;;;;;;;;;;1827703;77;21092;-83
2022/09/23 15:19:05;;;;;;;6.25;3.60;;;;;;;;;;1828927;76;21170;-83
2022/09/23 15:21:39;;;;;;;10.40;3.47;;;;;;;;;;1823934;77;21058;-81
2022/09/23 15:24:09;;;;;;;6.08;3.50;;;;;;;;;;1833714;77;21626;-82
2022/09/23 15:26:39;;;;;;;6.45;3.87;;;;;;;;;;1823280;77;21162;-82
2022/09/23 15:29:11;;;;;;;7.92;3.92;;;;;;;;;;1825448;77;21194;-83